首页
METAR-TAF:

METAR-TAF

机场 :

西雅圖, 华盛顿, 美国

纬度: 47-32-45N, 经度: 122-18-49W, 海拔: 5米

当前天气观测

该预报发布于29分钟前的16:53 UTC
风速9节,风向南转南东
温度 5°C
湿度 81%
气压 1025 hPa
能見度: 16.1公里
少量云层高于10000英尺
阴天层高于18000英尺

METAR: KBFI 121653Z 15009KT 10SM FEW100 OVC180 05/02 A3027 RMK AO2 SLP251 T00500022

时间: 09:22 (17:22 UTC)

预报

该预报发布于5小时和51分钟前的11:31 UTC
预报有效从12日的 12点(UTC)到 13日的 12点(UTC)
风速6节,风向南转南东
能見度: 10公里
散云层高于4000英尺
多云层高于8000英尺
附近有阵雨
从 12日的 1800点(UTC)
风速8节,风向
能見度: 10公里
多云层高于8000英尺
阴天层高于20000英尺
从 13日的 0100点(UTC)
风速10节,风向
能見度: 10公里
散云层高于2500英尺
阴天层高于5000英尺
小雨
从 13日的 0600点(UTC)
风速12节,风向,有时为18节阵风
能見度: 10公里
阴天层高于3000英尺
小雨

TAF: KBFI 121131Z 1212/1312 16006KT P6SM VCSH SCT040 BKN080 FM121800 17008KT P6SM BKN080 OVC200 FM130100 17010KT P6SM -RA SCT025 OVC050 FM130600 17012G18KT P6SM -RA OVC030

超过4000个机场的气象观测和天气预报(METAR&TAF报告)。

可查询的气象台以黄色和红色小点在地图上表示。

将鼠标移到小点上方,可查看气象台名称。

然后点击查看天气观测和预报。

如需切换地图:点击带黑十字的绿色按钮放大地图;点击带横线的绿色按钮缩小地图;或者点击绿色箭头查看邻近地区的地图。


METAR-TAF: